Time,TemperatureF,DewpointF,PressureIn,WindDirection,WindDirectionDegrees,WindSpeedMPH,WindSpeedGustMPH,Humidity,HourlyPrecipIn,Conditions,Clouds,dailyrainin,SoftwareType,DateUTC
2013-03-24 00:07:00,26.6,23.0,29.97,NW,311,5.0,10.0,85,0.00,,,0.00,weatherlink.com 1.10,2013-03-24 04:07:00,
2013-03-24 00:22:00,26.6,23.0,29.97,WNW,295,6.0,10.0,85,0.00,,,0.00,weatherlink.com 1.10,2013-03-24 04:22:00,
2013-03-24 00:37:00,26.6,23.0,29.97,WNW,294,9.0,10.0,86,0.00,,,0.00,weatherlink.com 1.10,2013-03-24 04:37:00,
2013-03-24 00:52:00,26.6,23.0,29.97,WNW,302,7.0,10.0,86,0.00,,,0.00,weatherlink.com 1.10,2013-03-24 04:52:00,
2013-03-24 01:07:00,26.6,23.0,29.96,WNW,298,6.0,7.0,87,0.00,,,0.00,weatherlink.com 1.10,2013-03-24 05:07:00,
2013-03-24 01:22:00,26.6,23.0,29.95,WNW,296,4.0,9.0,87,0.00,,,0.00,weatherlink.com 1.10,2013-03-24 05:22:00,
2013-03-24 01:37:00,26.4,23.0,29.94,NW,311,6.0,9.0,87,0.00,,,0.00,weatherlink.com 1.10,2013-03-24 05:37:00,
2013-03-24 01:52:00,26.3,23.0,29.94,WNW,294,5.0,7.0,88,0.00,,,0.00,weatherlink.com 1.10,2013-03-24 05:52:00,
2013-03-24 02:07:00,26.0,23.0,29.93,NW,309,3.0,6.0,88,0.00,,,0.00,weatherlink.com 1.10,2013-03-24 06:07:00,
2013-03-24 02:22:00,25.6,23.0,29.92,WNW,300,3.0,5.0,89,0.00,,,0.00,weatherlink.com 1.10,2013-03-24 06:22:00,
2013-03-24 02:37:00,25.1,22.0,29.91,NW,311,2.0,5.0,89,0.00,,,0.00,weatherlink.com 1.10,2013-03-24 06:37:00,
2013-03-24 02:52:00,24.6,22.0,29.91,WNW,283,3.0,3.0,90,0.00,,,0.00,weatherlink.com 1.10,2013-03-24 06:52:00,
2013-03-24 03:07:00,24.3,22.0,29.91,WNW,290,2.0,4.0,91,0.00,,,0.00,weatherlink.com 1.10,2013-03-24 07:07:00,
2013-03-24 03:22:00,23.4,21.0,29.89,NNE,13,4.0,6.0,91,0.00,,,0.00,weatherlink.com 1.10,2013-03-24 07:22:00,
2013-03-24 03:37:00,23.4,22.0,29.89,NW,317,3.0,5.0,92,0.00,,,0.00,weatherlink.com 1.10,2013-03-24 07:37:00,
2013-03-24 03:52:00,23.6,22.0,29.92,WSW,249,4.0,4.0,93,0.00,,,0.00,weatherlink.com 1.10,2013-03-24 07:52:00,
2013-03-24 04:07:00,23.5,22.0,29.91,West,271,0.0,3.0,93,0.00,,,0.00,weatherlink.com 1.10,2013-03-24 08:07:00,
2013-03-24 04:22:00,23.5,22.0,29.92,SSW,201,2.0,3.0,93,0.00,,,0.00,weatherlink.com 1.10,2013-03-24 08:22:00,
2013-03-24 04:37:00,23.0,21.0,29.91,ESE,117,0.0,1.0,93,0.00,,,0.00,weatherlink.com 1.10,2013-03-24 08:37:00,
2013-03-24 04:52:00,22.2,21.0,29.91,ENE,72,2.0,2.0,93,0.00,,,0.00,weatherlink.com 1.10,2013-03-24 08:52:00,
2013-03-24 05:08:00,22.5,21.0,29.90,ENE,58,3.0,3.0,94,0.00,,,0.00,weatherlink.com 1.10,2013-03-24 09:08:00,
2013-03-24 05:22:00,23.2,22.0,29.91,North,353,2.0,3.0,94,0.00,,,0.00,weatherlink.com 1.10,2013-03-24 09:22:00,
2013-03-24 05:37:00,23.5,22.0,29.91,North,356,0.0,1.0,94,0.00,,,0.00,weatherlink.com 1.10,2013-03-24 09:37:00,
2013-03-24 05:52:00,23.7,23.0,29.92,West,264,1.0,1.0,95,0.00,,,0.00,weatherlink.com 1.10,2013-03-24 09:52:00,
2013-03-24 06:07:00,23.9,23.0,29.92,WSW,246,1.0,3.0,94,0.00,,,0.00,weatherlink.com 1.10,2013-03-24 10:07:00,
2013-03-24 06:22:00,24.4,23.0,29.92,NNW,330,0.0,4.0,95,0.00,,,0.00,weatherlink.com 1.10,2013-03-24 10:22:00,
2013-03-24 06:37:00,24.4,23.0,29.92,NNW,338,1.0,2.0,94,0.00,,,0.00,weatherlink.com 1.10,2013-03-24 10:37:00,
2013-03-24 06:52:00,24.5,23.0,29.91,NNW,330,0.0,1.0,94,0.00,,,0.00,weatherlink.com 1.10,2013-03-24 10:52:00,
2013-03-24 07:07:00,24.6,23.0,29.92,WNW,297,3.0,6.0,94,0.00,,,0.00,weatherlink.com 1.10,2013-03-24 11:07:00,
2013-03-24 07:37:00,25.0,24.0,29.93,West,267,1.0,2.0,94,0.00,,,0.00,weatherlink.com 1.10,2013-03-24 11:37:00,
2013-03-24 07:53:00,25.2,24.0,29.93,West,280,1.0,4.0,94,0.00,,,0.00,weatherlink.com 1.10,2013-03-24 11:53:00,
2013-03-24 08:08:00,25.3,24.0,29.93,West,280,2.0,3.0,94,0.00,,,0.00,weatherlink.com 1.10,2013-03-24 12:08:00,
2013-03-24 08:23:00,25.5,24.0,29.93,WNW,287,2.0,5.0,94,0.00,,,0.00,weatherlink.com 1.10,2013-03-24 12:23:00,
2013-03-24 08:38:00,25.7,24.0,29.92,WNW,295,0.0,4.0,94,0.00,,,0.00,weatherlink.com 1.10,2013-03-24 12:38:00,
2013-03-24 08:53:00,26.0,25.0,29.91,WNW,290,1.0,3.0,94,0.00,,,0.00,weatherlink.com 1.10,2013-03-24 12:53:00,
2013-03-24 09:08:00,26.2,25.0,29.91,NE,47,2.0,5.0,94,0.00,,,0.00,weatherlink.com 1.10,2013-03-24 13:08:00,
2013-03-24 09:23:00,27.0,25.0,29.91,NNE,13,2.0,5.0,93,0.00,,,0.00,weatherlink.com 1.10,2013-03-24 13:23:00,
2013-03-24 09:38:00,27.0,25.0,29.91,North,350,2.0,5.0,91,0.00,,,0.00,weatherlink.com 1.10,2013-03-24 13:38:00,
2013-03-24 09:53:00,27.9,25.0,29.91,NE,40,2.0,5.0,90,0.00,,,0.00,weatherlink.com 1.10,2013-03-24 13:53:00,
2013-03-24 10:08:00,27.9,25.0,29.91,NNE,30,5.0,5.0,87,0.00,,,0.00,weatherlink.com 1.10,2013-03-24 14:08:00,
2013-03-24 10:24:00,27.8,23.0,29.91,NNE,22,5.0,7.0,83,0.00,,,0.00,weatherlink.com 1.10,2013-03-24 14:24:00,
2013-03-24 10:38:00,28.4,23.0,29.91,NNE,26,4.0,6.0,81,0.00,,,0.00,weatherlink.com 1.10,2013-03-24 14:38:00,
2013-03-24 10:53:00,29.0,23.0,29.90,NNE,23,3.0,5.0,79,0.00,,,0.00,weatherlink.com 1.10,2013-03-24 14:53:00,
2013-03-24 11:08:00,29.6,22.0,29.89,NNE,17,5.0,6.0,74,0.00,,,0.00,weatherlink.com 1.10,2013-03-24 15:08:00,
2013-03-24 11:23:00,30.0,22.0,29.87,NNE,27,3.0,7.0,72,0.00,,,0.00,weatherlink.com 1.10,2013-03-24 15:23:00,
2013-03-24 11:38:00,30.2,22.0,29.86,NNE,12,3.0,6.0,71,0.00,,,0.00,weatherlink.com 1.10,2013-03-24 15:38:00,
2013-03-24 11:53:00,31.6,22.0,29.84,ENE,63,7.0,11.0,68,0.00,,,0.00,weatherlink.com 1.10,2013-03-24 15:53:00,
2013-03-24 12:08:00,30.4,21.0,29.83,ENE,78,7.0,11.0,68,0.00,,,0.00,weatherlink.com 1.10,2013-03-24 16:08:00,
2013-03-24 12:23:00,30.2,21.0,29.83,ENE,68,7.0,14.0,68,0.00,,,0.00,weatherlink.com 1.10,2013-03-24 16:23:00,
2013-03-24 12:38:00,31.1,21.0,29.83,East,94,2.0,8.0,66,0.00,,,0.00,weatherlink.com 1.10,2013-03-24 16:38:00,
2013-03-24 12:53:00,32.6,22.0,29.82,ENE,75,2.0,5.0,64,0.00,,,0.00,weatherlink.com 1.10,2013-03-24 16:53:00,
2013-03-24 13:08:00,32.4,21.0,29.82,East,99,9.0,9.0,62,0.00,,,0.00,weatherlink.com 1.10,2013-03-24 17:08:00,
2013-03-24 13:23:00,31.6,20.0,29.80,East,79,11.0,12.0,62,0.00,,,0.00,weatherlink.com 1.10,2013-03-24 17:23:00,
2013-03-24 13:38:00,31.8,20.0,29.79,ENE,76,12.0,13.0,63,0.00,,,0.00,weatherlink.com 1.10,2013-03-24 17:38:00,
2013-03-24 13:54:00,31.6,20.0,29.78,ENE,78,13.0,15.0,62,0.00,,,0.00,weatherlink.com 1.10,2013-03-24 17:54:00,
2013-03-24 14:08:00,32.2,20.0,29.77,East,81,15.0,15.0,60,0.00,,,0.00,weatherlink.com 1.10,2013-03-24 18:08:00,
2013-03-24 14:23:00,32.4,19.0,29.77,ENE,68,11.0,14.0,58,0.00,,,0.00,weatherlink.com 1.10,2013-03-24 18:23:00,
2013-03-24 14:39:00,32.9,19.0,29.76,NNE,20,8.0,14.0,58,0.00,,,0.00,weatherlink.com 1.10,2013-03-24 18:39:00,
2013-03-24 14:54:00,33.0,20.0,29.75,ENE,71,10.0,14.0,59,0.00,,,0.00,weatherlink.com 1.10,2013-03-24 18:54:00,
2013-03-24 15:09:00,33.3,20.0,29.75,ENE,58,9.0,13.0,58,0.00,,,0.00,weatherlink.com 1.10,2013-03-24 19:09:00,
2013-03-24 15:24:00,33.4,21.0,29.74,East,82,9.0,15.0,60,0.00,,,0.00,weatherlink.com 1.10,2013-03-24 19:24:00,
2013-03-24 15:39:00,33.6,20.0,29.74,NE,49,12.0,14.0,58,0.00,,,0.00,weatherlink.com 1.10,2013-03-24 19:39:00,
2013-03-24 15:54:00,33.9,20.0,29.73,ENE,72,5.0,11.0,58,0.00,,,0.00,weatherlink.com 1.10,2013-03-24 19:54:00,
2013-03-24 16:09:00,33.8,21.0,29.73,ENE,60,5.0,12.0,59,0.00,,,0.00,weatherlink.com 1.10,2013-03-24 20:09:00,
2013-03-24 16:24:00,33.8,21.0,29.72,NNE,33,9.0,14.0,60,0.00,,,0.00,weatherlink.com 1.10,2013-03-24 20:24:00,
2013-03-24 16:39:00,33.2,21.0,29.72,ENE,70,7.0,13.0,62,0.00,,,0.00,weatherlink.com 1.10,2013-03-24 20:39:00,
2013-03-24 16:54:00,33.3,22.0,29.71,ENE,65,13.0,14.0,63,0.00,,,0.00,weatherlink.com 1.10,2013-03-24 20:54:00,
2013-03-24 17:09:00,32.9,22.0,29.70,ENE,65,13.0,15.0,64,0.00,,,0.00,weatherlink.com 1.10,2013-03-24 21:09:00,
2013-03-24 17:24:00,32.7,22.0,29.70,ENE,70,17.0,18.0,65,0.00,,,0.00,weatherlink.com 1.10,2013-03-24 21:24:00,
2013-03-24 17:39:00,32.5,23.0,29.70,ENE,73,13.0,16.0,67,0.00,,,0.00,weatherlink.com 1.10,2013-03-24 21:39:00,
2013-03-24 17:54:00,32.4,23.0,29.68,ENE,58,20.0,20.0,67,0.00,,,0.00,weatherlink.com 1.10,2013-03-24 21:54:00,
2013-03-24 18:09:00,32.4,23.0,29.68,ENE,67,13.0,21.0,68,0.00,,,0.00,weatherlink.com 1.10,2013-03-24 22:09:00,
2013-03-24 18:24:00,32.3,23.0,29.68,NNW,328,6.0,17.0,69,0.00,,,0.00,weatherlink.com 1.10,2013-03-24 22:24:00,
2013-03-24 18:39:00,32.0,24.0,29.69,NE,55,11.0,19.0,71,0.00,,,0.00,weatherlink.com 1.10,2013-03-24 22:39:00,
2013-03-24 18:54:00,31.6,24.0,29.68,ENE,60,12.0,17.0,72,0.00,,,0.00,weatherlink.com 1.10,2013-03-24 22:54:00,
2013-03-24 19:09:00,31.3,24.0,29.68,ENE,65,10.0,17.0,73,0.00,,,0.00,weatherlink.com 1.10,2013-03-24 23:09:00,
2013-03-24 19:25:00,30.9,24.0,29.68,ENE,61,12.0,18.0,74,0.00,,,0.00,weatherlink.com 1.10,2013-03-24 23:25:00,
2013-03-24 19:39:00,30.5,23.0,29.68,ENE,72,21.0,-999.0,75,-99.99,,,0.00,weatherlink.com 1.10,2013-03-24 23:39:00,
2013-03-24 19:54:00,30.2,23.0,29.67,ENE,66,11.0,17.0,75,0.00,,,0.00,weatherlink.com 1.10,2013-03-24 23:54:00,
2013-03-24 20:09:00,29.8,23.0,29.68,ENE,66,13.0,17.0,75,0.00,,,0.00,weatherlink.com 1.10,2013-03-25 00:09:00,
2013-03-24 20:24:00,29.5,23.0,29.67,ENE,69,11.0,19.0,75,0.00,,,0.00,weatherlink.com 1.10,2013-03-25 00:24:00,
2013-03-24 20:39:00,29.0,22.0,29.68,ENE,77,21.0,22.0,74,0.00,,,0.00,weatherlink.com 1.10,2013-03-25 00:39:00,
2013-03-24 20:54:00,28.8,22.0,29.67,East,85,15.0,21.0,74,0.00,,,0.00,weatherlink.com 1.10,2013-03-25 00:54:00,
2013-03-24 21:09:00,28.4,21.0,29.67,ENE,60,15.0,17.0,73,0.00,,,0.00,weatherlink.com 1.10,2013-03-25 01:09:00,
2013-03-24 21:24:00,28.3,21.0,29.66,NNE,25,15.0,20.0,74,0.00,,,0.00,weatherlink.com 1.10,2013-03-25 01:24:00,
2013-03-24 21:39:00,28.1,21.0,29.65,NE,56,25.0,25.0,74,0.00,,,0.00,weatherlink.com 1.10,2013-03-25 01:39:00,
2013-03-24 21:54:00,28.0,21.0,29.66,ENE,74,14.0,22.0,75,0.00,,,0.00,weatherlink.com 1.10,2013-03-25 01:54:00,
2013-03-24 22:09:00,27.8,21.0,29.66,ENE,58,19.0,21.0,76,0.00,,,0.00,weatherlink.com 1.10,2013-03-25 02:09:00,
2013-03-24 22:24:00,27.7,21.0,29.65,ENE,72,21.0,21.0,77,0.00,,,0.00,weatherlink.com 1.10,2013-03-25 02:24:00,
2013-03-24 22:39:00,27.6,21.0,29.63,ENE,62,22.0,29.0,77,0.00,,,0.00,weatherlink.com 1.10,2013-03-25 02:39:00,
2013-03-24 22:54:00,27.5,22.0,29.63,ENE,65,17.0,25.0,78,0.00,,,0.00,weatherlink.com 1.10,2013-03-25 02:54:00,
2013-03-24 23:09:00,27.5,22.0,29.63,ENE,70,22.0,22.0,78,0.00,,,0.00,weatherlink.com 1.10,2013-03-25 03:09:00,
2013-03-24 23:24:00,27.5,22.0,29.63,ENE,72,18.0,25.0,78,0.00,,,0.00,weatherlink.com 1.10,2013-03-25 03:24:00,
2013-03-24 23:39:00,27.5,21.0,29.62,ENE,72,25.0,30.0,77,0.00,,,0.00,weatherlink.com 1.10,2013-03-25 03:39:00,
2013-03-24 23:54:00,27.7,21.0,29.61,ENE,67,25.0,30.0,77,0.00,,,0.00,weatherlink.com 1.10,2013-03-25 03:54:00,